Time;durP1;ratioP1;P1;durP2;ratioP2;P2;SDS_P1;SDS_P2;PMS_P1;PMS_P2;Temp;Humidity;BMP_temperature;BMP_pressure;BME280_temperature;BME280_humidity;BME280_pressure;Samples;Min_cycle;Max_cycle;Signal;HPM_P1;HPM_P2
2022/03/14 00:01:14;;;;;;;1.02;0.80;;;;;;;10.89;70.92;101652.09;5074878;28;20028;-36
2022/03/14 00:03:47;;;;;;;0.80;0.70;;;;;;;10.86;70.71;101657.91;5074975;28;20025;-36
2022/03/14 00:06:14;;;;;;;1.45;0.80;;;;;;;10.83;70.72;101657.31;5074962;28;20103;-36
2022/03/14 00:08:40;;;;;;;0.90;0.80;;;;;;;10.83;70.27;101665.41;5075885;28;20036;-36
2022/03/14 00:11:06;;;;;;;1.17;0.98;;;;;;;10.81;70.85;101669.38;5075105;28;20028;-36
2022/03/14 00:13:32;;;;;;;0.90;0.80;;;;;;;10.78;71.76;101675.19;5075325;28;20024;-36
2022/03/14 00:15:59;;;;;;;2.63;1.10;;;;;;;10.73;70.85;101659.59;5074709;28;20070;-36
2022/03/14 00:18:27;;;;;;;0.90;0.80;;;;;;;10.77;71.18;101678.94;5075308;28;20454;-36
2022/03/14 00:20:53;;;;;;;1.15;0.93;;;;;;;10.75;71.45;101678.34;5075519;28;20350;-36
2022/03/14 00:23:19;;;;;;;1.67;0.90;;;;;;;10.76;70.87;101680.81;5074346;28;20077;-36
2022/03/14 00:25:44;;;;;;;1.42;0.90;;;;;;;10.76;71.44;101682.69;5075087;28;20111;-36
2022/03/14 00:28:11;;;;;;;2.10;1.00;;;;;;;10.52;71.54;101657.97;5074505;28;20113;-36
2022/03/14 00:30:36;;;;;;;1.08;0.88;;;;;;;10.71;71.68;101696.03;5073739;28;20271;-36
2022/03/14 00:33:02;;;;;;;1.73;1.23;;;;;;;10.73;71.54;101688.53;5074152;28;20400;-36
2022/03/14 00:35:27;;;;;;;1.25;1.02;;;;;;;10.65;72.05;101691.47;5074662;28;20373;-36
2022/03/14 00:37:53;;;;;;;1.03;0.90;;;;;;;10.74;71.61;101704.56;5073952;28;20098;-36
2022/03/14 00:40:18;;;;;;;1.20;1.00;;;;;;;10.73;71.89;101708.28;5074221;28;20024;-36
2022/03/14 00:42:43;;;;;;;1.50;1.35;;;;;;;10.70;71.55;101702.50;5074163;28;20130;-36
2022/03/14 00:45:09;;;;;;;1.40;1.13;;;;;;;10.68;71.67;101713.50;5074680;28;20480;-36
2022/03/14 00:47:35;;;;;;;1.48;1.20;;;;;;;10.73;71.43;101712.88;5074558;28;20025;-36
2022/03/14 00:50:00;;;;;;;1.58;1.00;;;;;;;10.68;72.26;101715.38;5074087;28;20040;-36
2022/03/14 00:52:26;;;;;;;1.63;1.13;;;;;;;10.67;71.65;101719.13;5074058;28;20031;-36
2022/03/14 00:54:51;;;;;;;2.08;1.35;;;;;;;10.57;72.19;101708.75;5074031;28;20465;-36
2022/03/14 00:57:17;;;;;;;1.83;1.40;;;;;;;10.62;72.12;101727.03;5074015;28;20085;-36
2022/03/14 00:59:42;;;;;;;1.90;1.38;;;;;;;10.52;72.73;101713.94;5074352;28;20287;-36
2022/03/14 01:02:08;;;;;;;1.57;1.20;;;;;;;10.64;72.48;101730.34;5073876;28;20086;-36
2022/03/14 01:04:34;;;;;;;1.40;1.20;;;;;;;10.65;72.27;101737.47;5073563;28;20025;-36
2022/03/14 01:07:02;;;;;;;1.52;1.10;;;;;;;10.55;72.78;101727.06;5073782;28;20077;-36
2022/03/14 01:09:28;;;;;;;1.58;1.02;;;;;;;10.57;73.16;101741.19;5073923;28;20039;-36
2022/03/14 01:11:53;;;;;;;1.25;1.10;;;;;;;10.57;72.79;101744.72;5073371;28;20099;-36
2022/03/14 01:14:18;;;;;;;1.70;1.20;;;;;;;10.40;73.55;101731.84;5073901;28;20099;-36
2022/03/14 01:16:44;;;;;;;1.42;1.10;;;;;;;10.48;75.46;101748.69;5073273;28;20115;-36
2022/03/14 01:19:11;;;;;;;1.83;1.33;;;;;;;10.51;75.50;101750.97;5073493;28;20036;-36
2022/03/14 01:21:38;;;;;;;1.85;1.30;;;;;;;10.44;76.26;101735.78;5073461;28;20036;-36
2022/03/14 01:24:04;;;;;;;2.08;1.70;;;;;;;10.37;76.55;101746.59;5073398;28;20121;-36
2022/03/14 01:26:29;;;;;;;1.60;1.30;;;;;;;10.41;76.35;101750.56;5073900;28;20461;-36
2022/03/14 01:28:54;;;;;;;1.47;1.20;;;;;;;10.44;76.26;101746.59;5073141;28;20400;-36
2022/03/14 01:31:20;;;;;;;2.30;1.40;;;;;;;10.40;77.03;101756.19;5073451;28;20032;-36
2022/03/14 01:33:45;;;;;;;1.50;1.30;;;;;;;10.35;76.66;101754.09;5073811;28;20024;-36
2022/03/14 01:36:10;;;;;;;1.50;1.20;;;;;;;10.31;77.12;101767.19;5072992;28;20374;-36
2022/03/14 01:38:36;;;;;;;2.30;1.43;;;;;;;10.28;76.66;101764.91;5073227;28;20089;-36
2022/03/14 01:41:01;;;;;;;1.60;1.40;;;;;;;10.30;76.61;101768.25;5073318;28;20021;-36
2022/03/14 01:43:27;;;;;;;2.05;1.73;;;;;;;10.25;77.16;101756.38;5073506;28;20267;-36
2022/03/14 01:45:59;;;;;;;1.80;1.43;;;;;;;10.22;76.57;101756.75;5073067;28;20044;-36
2022/03/14 01:48:25;;;;;;;1.70;1.50;;;;;;;10.24;77.16;101768.22;5073210;28;20415;-36
2022/03/14 01:50:51;;;;;;;2.17;1.45;;;;;;;10.21;76.94;101768.63;5073591;28;20033;-36
2022/03/14 01:53:18;;;;;;;1.80;1.58;;;;;;;10.19;77.91;101767.97;5073148;28;20078;-36
2022/03/14 01:55:45;;;;;;;1.70;1.50;;;;;;;10.22;77.14;101775.69;5073408;28;20028;-36
2022/03/14 01:58:10;;;;;;;1.50;1.20;;;;;;;10.21;77.69;101779.44;5072862;28;20029;-36
2022/03/14 02:00:36;;;;;;;1.98;1.65;;;;;;;10.20;77.10;101780.44;5073102;28;20029;-36
2022/03/14 02:03:01;;;;;;;1.67;1.50;;;;;;;10.20;77.69;101777.75;5073087;28;20028;-36
2022/03/14 02:05:28;;;;;;;2.08;1.65;;;;;;;10.20;77.63;101777.75;5073411;28;20048;-36
2022/03/14 02:07:55;;;;;;;1.52;1.40;;;;;;;10.21;77.32;101787.53;5072996;28;20112;-36
2022/03/14 02:10:21;;;;;;;1.60;1.42;;;;;;;10.14;77.19;101779.41;5076555;28;20047;-36
2022/03/14 02:12:46;;;;;;;2.23;1.70;;;;;;;10.14;77.67;101774.00;5077226;28;20025;-36
2022/03/14 02:15:12;;;;;;;1.93;1.50;;;;;;;10.24;77.62;101796.06;5077385;28;20751;-36
2022/03/14 02:17:37;;;;;;;2.28;1.70;;;;;;;10.21;77.47;101791.06;5076764;28;20020;-36
2022/03/14 02:20:03;;;;;;;1.63;1.37;;;;;;;10.13;77.70;101791.25;5077404;28;20440;-36
2022/03/14 02:22:28;;;;;;;1.60;1.40;;;;;;;10.18;78.05;101798.75;5076841;28;20285;-36
2022/03/14 02:24:54;;;;;;;1.70;1.47;;;;;;;10.16;78.09;101800.84;5077488;28;20032;-36
2022/03/14 02:27:19;;;;;;;2.17;1.70;;;;;;;10.10;78.11;101796.22;5076536;28;20059;-36
2022/03/14 02:29:45;;;;;;;1.93;1.63;;;;;;;10.18;77.65;101804.97;5077080;28;20021;-36
2022/03/14 02:32:12;;;;;;;1.98;1.60;;;;;;;10.22;77.57;101810.81;5076706;28;20365;-36
2022/03/14 02:34:38;;;;;;;2.28;1.73;;;;;;;10.14;78.27;101802.91;5076481;28;20021;-36
2022/03/14 02:37:04;;;;;;;2.22;1.75;;;;;;;10.20;77.95;101804.78;5076683;28;20182;-36
2022/03/14 02:39:32;;;;;;;1.90;1.70;;;;;;;10.14;78.10;101805.59;5076552;28;20050;-36
2022/03/14 02:41:59;;;;;;;3.08;2.35;;;;;;;10.19;77.88;101805.81;5077237;28;20077;-36
2022/03/14 02:44:25;;;;;;;2.22;1.95;;;;;;;10.16;78.01;101806.25;5076664;28;20450;-36
2022/03/14 02:46:50;;;;;;;2.67;2.15;;;;;;;10.14;78.42;101811.00;5075868;28;20123;-36
2022/03/14 02:49:15;;;;;;;2.42;1.80;;;;;;;10.13;78.34;101804.75;5076718;28;20453;-36
2022/03/14 02:51:43;;;;;;;2.20;1.80;;;;;;;10.10;78.43;101810.56;5076908;28;20028;-36
2022/03/14 02:54:10;;;;;;;2.45;1.95;;;;;;;10.04;79.15;101816.78;5076790;28;20086;-36
2022/03/14 02:56:36;;;;;;;2.25;2.05;;;;;;;10.07;79.18;101829.91;5076540;28;20059;-36
2022/03/14 02:59:04;;;;;;;2.00;1.70;;;;;;;10.08;78.81;101828.88;5076391;28;20559;-36
2022/03/14 03:01:30;;;;;;;2.33;1.80;;;;;;;9.99;78.93;101825.50;5076032;28;20028;-36
2022/03/14 03:03:55;;;;;;;1.73;1.50;;;;;;;9.99;79.02;101825.50;5075998;28;20024;-36
2022/03/14 03:06:23;;;;;;;2.27;2.00;;;;;;;10.04;78.92;101847.34;5076488;28;20078;-36
2022/03/14 03:08:53;;;;;;;4.72;1.80;;;;;;;10.01;78.99;101845.06;5076620;28;20036;-36
2022/03/14 03:11:20;;;;;;;2.25;1.90;;;;;;;10.01;79.24;101842.38;5076598;28;20036;-36
2022/03/14 03:13:47;;;;;;;2.25;1.80;;;;;;;9.88;79.01;101839.63;5075939;28;20330;-36
2022/03/14 03:16:15;;;;;;;1.95;1.75;;;;;;;9.92;79.42;101856.25;5076700;28;20036;-36
2022/03/14 03:18:41;;;;;;;3.53;1.50;;;;;;;9.85;79.03;101856.22;5075704;28;20382;-36
2022/03/14 03:21:07;;;;;;;2.40;1.73;;;;;;;9.89;78.84;101873.69;5074813;28;20060;-36
2022/03/14 03:23:35;;;;;;;2.38;1.65;;;;;;;9.73;78.96;101847.03;5075837;28;20025;-36
2022/03/14 03:26:02;;;;;;;2.03;1.45;;;;;;;9.87;78.90;101869.53;5075557;28;20032;-36
2022/03/14 03:28:28;;;;;;;2.30;1.80;;;;;;;9.81;79.37;101879.28;5076167;28;20028;-36
2022/03/14 03:30:53;;;;;;;2.00;1.63;;;;;;;9.79;79.17;101884.03;5076162;28;20036;-36
2022/03/14 03:33:19;;;;;;;2.13;1.73;;;;;;;9.79;79.76;101890.28;5075643;28;20111;-36
2022/03/14 03:35:44;;;;;;;1.73;1.50;;;;;;;9.75;79.81;101902.50;5075388;28;20243;-36
2022/03/14 03:38:10;;;;;;;2.13;1.90;;;;;;;9.71;80.18;101913.91;5075110;28;20024;-36
2022/03/14 03:40:35;;;;;;;2.95;2.20;;;;;;;9.67;80.61;101924.31;5075411;28;20103;-36
2022/03/14 03:43:01;;;;;;;2.13;1.83;;;;;;;9.59;81.40;101910.13;5073951;28;20130;-36
2022/03/14 03:45:26;;;;;;;2.30;1.87;;;;;;;9.54;81.70;101916.09;5075320;28;20276;-36
2022/03/14 03:47:53;;;;;;;2.23;1.60;;;;;;;9.61;81.25;101929.63;5075485;28;20064;-36
2022/03/14 03:50:20;;;;;;;1.92;1.55;;;;;;;9.60;81.69;101938.78;5075154;28;20410;-36
2022/03/14 03:52:45;;;;;;;2.00;1.80;;;;;;;9.59;82.65;101942.53;5075294;28;20033;-36
2022/03/14 03:55:10;;;;;;;1.80;1.70;;;;;;;9.46;82.96;101932.44;5075737;28;20043;-36
2022/03/14 03:57:36;;;;;;;4.80;2.13;;;;;;;9.47;83.04;101948.47;5075158;28;20478;-36
2022/03/14 04:00:07;;;;;;;2.30;2.10;;;;;;;9.38;83.45;101938.84;5075113;28;20026;-36
2022/03/14 04:02:36;;;;;;;2.80;2.17;;;;;;;9.41;83.71;101957.34;5075316;28;20396;-36
2022/03/14 04:05:02;;;;;;;2.13;1.90;;;;;;;9.45;84.14;101968.59;5075745;28;20079;-36
2022/03/14 04:07:27;;;;;;;2.40;2.20;;;;;;;9.40;85.58;101977.28;5074975;28;20464;-36
2022/03/14 04:09:56;;;;;;;2.37;2.17;;;;;;;9.32;85.94;101974.72;5074963;28;20036;-35
2022/03/14 04:12:26;;;;;;;3.50;2.10;;;;;;;9.31;85.80;101991.94;5074448;28;20033;-35
2022/03/14 04:15:06;;;;;;;3.63;2.40;;;;;;;9.24;86.37;101988.34;5074833;28;20056;-36
2022/03/14 04:17:32;;;;;;;2.78;2.47;;;;;;;9.07;86.50;101973.44;5075192;28;20104;-36
2022/03/14 04:20:00;;;;;;;;;;;;;;;9.26;85.67;101999.78;5075325;28;20025;-36
2022/03/14 04:22:25;;;;;;;3.78;2.42;;;;;;;9.22;86.13;102006.59;5074338;28;19919;-36
2022/03/14 04:24:51;;;;;;;3.20;2.13;;;;;;;9.17;86.36;101999.06;5074647;28;20099;-36
2022/03/14 04:27:17;;;;;;;2.58;2.38;;;;;;;9.21;86.43;102007.63;5074490;28;20051;-36
2022/03/14 04:29:42;;;;;;;3.22;2.58;;;;;;;9.13;87.15;102005.91;5074985;28;20086;-36
2022/03/14 04:32:08;;;;;;;2.90;2.53;;;;;;;9.09;87.27;102006.50;5074372;28;20504;-36
2022/03/14 04:34:33;;;;;;;2.93;2.57;;;;;;;9.09;87.55;102010.03;5074669;28;20120;-36
2022/03/14 04:36:58;;;;;;;3.20;2.90;;;;;;;9.05;87.29;102018.69;5073835;28;20102;-36
2022/03/14 04:39:24;;;;;;;3.25;2.42;;;;;;;9.00;87.45;102013.88;5074440;28;20025;-36
2022/03/14 04:41:49;;;;;;;3.83;3.00;;;;;;;8.93;87.10;102011.13;5073890;28;20078;-36
2022/03/14 04:44:16;;;;;;;3.08;2.53;;;;;;;8.92;87.69;102020.22;5074901;28;20070;-36
2022/03/14 04:46:41;;;;;;;3.05;2.75;;;;;;;8.92;89.14;102039.09;5074713;28;20369;-36
2022/03/14 04:49:08;;;;;;;3.30;3.00;;;;;;;8.87;88.66;102038.00;5074020;28;20028;-36
2022/03/14 04:51:36;;;;;;;3.47;2.90;;;;;;;8.89;88.78;102035.97;5073601;28;20063;-36
2022/03/14 04:54:01;;;;;;;3.22;2.92;;;;;;;8.84;89.26;102046.50;5074195;28;20029;-36
2022/03/14 04:56:27;;;;;;;3.33;2.83;;;;;;;8.82;88.90;102049.34;5074165;28;20070;-35
2022/03/14 04:58:52;;;;;;;3.55;3.25;;;;;;;8.84;89.25;102057.28;5073778;28;20275;-36
2022/03/14 05:01:23;;;;;;;4.07;3.07;;;;;;;8.84;89.33;102058.09;5074206;28;20033;-36
2022/03/14 05:03:50;;;;;;;3.83;3.10;;;;;;;8.77;89.73;102057.19;5073767;28;20032;-36
2022/03/14 05:06:18;;;;;;;3.38;3.05;;;;;;;8.79;89.88;102052.44;5072383;28;20040;-36
2022/03/14 05:08:43;;;;;;;4.55;3.53;;;;;;;8.77;89.61;102066.09;5073937;28;20024;-36
2022/03/14 05:11:11;;;;;;;4.40;3.67;;;;;;;8.80;89.99;102069.47;5073461;28;20067;-36
2022/03/14 05:13:36;;;;;;;4.22;3.58;;;;;;;8.67;89.36;102070.13;5073240;28;20492;-36
2022/03/14 05:16:02;;;;;;;3.72;3.42;;;;;;;8.75;90.03;102086.22;5073378;28;20029;-36
2022/03/14 05:18:27;;;;;;;4.17;3.70;;;;;;;8.74;90.03;102087.25;5073822;28;20530;-36
2022/03/14 05:20:53;;;;;;;4.00;3.60;;;;;;;8.71;89.60;102096.53;5072021;28;20103;-36
2022/03/14 05:23:18;;;;;;;4.83;4.17;;;;;;;8.63;89.91;102090.41;5073613;28;20457;-35
2022/03/14 05:25:44;;;;;;;3.90;3.28;;;;;;;8.68;90.18;102106.84;5073436;28;20358;-36
2022/03/14 05:28:09;;;;;;;4.68;4.00;;;;;;;8.68;89.68;102114.94;5073374;28;20031;-36
2022/03/14 05:30:34;;;;;;;4.93;4.20;;;;;;;8.71;90.23;102117.28;5073501;28;20428;-35
2022/03/14 05:33:00;;;;;;;4.80;4.30;;;;;;;8.68;90.28;102114.94;5073231;28;20034;-36
2022/03/14 05:35:25;;;;;;;6.33;3.70;;;;;;;8.68;90.39;102123.03;5073637;28;20033;-35
2022/03/14 05:37:50;;;;;;;4.53;3.87;;;;;;;8.63;90.04;102114.66;5073426;28;20048;-35
2022/03/14 05:40:20;;;;;;;4.17;3.80;;;;;;;8.64;89.81;102127.16;5073199;28;20301;-37
2022/03/14 05:42:47;;;;;;;5.15;4.63;;;;;;;8.66;90.65;102136.72;5073172;28;20066;-35
2022/03/14 05:45:13;;;;;;;6.13;4.20;;;;;;;8.51;90.58;102123.22;5071876;28;20489;-35
2022/03/14 05:47:38;;;;;;;;;;;;;;;8.70;88.93;102145.28;5073590;28;20107;-35
2022/03/14 05:50:04;;;;;;;6.63;4.20;;;;;;;8.63;90.52;102155.94;5073036;28;20368;-35
2022/03/14 05:52:30;;;;;;;5.72;4.50;;;;;;;8.62;90.42;102153.44;5072877;28;20405;-35
2022/03/14 05:54:55;;;;;;;6.93;4.53;;;;;;;8.61;90.67;102160.69;5073700;28;20025;-35
2022/03/14 05:57:21;;;;;;;4.97;4.47;;;;;;;8.61;90.39;102163.41;5073479;28;20033;-35
2022/03/14 05:59:47;;;;;;;5.47;4.03;;;;;;;8.59;90.60;102168.16;5073978;28;20115;-35
2022/03/14 06:02:18;;;;;;;6.35;4.00;;;;;;;8.61;90.88;102171.50;5073174;28;20365;-35
2022/03/14 06:04:44;;;;;;;5.65;4.70;;;;;;;8.57;90.50;102174.75;5073246;28;20131;-35
2022/03/14 06:07:09;;;;;;;6.03;5.30;;;;;;;8.56;90.52;102181.16;5073540;28;20029;-35
2022/03/14 06:09:35;;;;;;;6.32;4.97;;;;;;;8.47;90.88;102170.47;5072960;28;20059;-35
2022/03/14 06:12:00;;;;;;;5.83;5.20;;;;;;;8.57;90.85;102189.06;5073302;28;20025;-35
2022/03/14 06:14:26;;;;;;;7.78;5.70;;;;;;;8.60;90.80;102195.97;5073193;28;20024;-35
2022/03/14 06:16:51;;;;;;;6.03;5.30;;;;;;;8.60;91.21;102195.97;5073780;28;20175;-35
2022/03/14 06:19:17;;;;;;;7.50;5.57;;;;;;;8.60;91.17;102201.34;5073042;28;20025;-35
2022/03/14 06:21:42;;;;;;;7.45;5.80;;;;;;;8.57;91.50;102199.00;5073926;28;20052;-42
2022/03/14 06:24:09;;;;;;;7.88;5.90;;;;;;;8.58;90.96;102201.50;5073371;28;20100;-35
2022/03/14 06:26:35;;;;;;;6.93;6.18;;;;;;;8.63;91.19;102209.88;5058192;28;20397;-35
2022/03/14 06:29:01;;;;;;;7.30;6.30;;;;;;;8.58;90.74;102200.69;5051607;28;20372;-35
2022/03/14 06:31:26;;;;;;;10.93;6.97;;;;;;;8.60;91.08;102198.66;5053181;28;20530;-36
2022/03/14 06:33:52;;;;;;;8.30;7.00;;;;;;;8.54;90.95;102200.22;5052982;28;20036;-36
2022/03/14 06:36:17;;;;;;;8.60;7.30;;;;;;;8.60;91.15;102212.97;5052618;28;20033;-36
2022/03/14 06:38:43;;;;;;;8.40;7.10;;;;;;;8.67;92.01;102224.69;5052924;28;20021;-35
2022/03/14 06:41:10;;;;;;;8.20;6.85;;;;;;;8.49;91.26;102218.78;5052510;28;20049;-35
2022/03/14 06:43:35;;;;;;;9.57;7.43;;;;;;;8.63;91.78;102244.09;5052731;28;20044;-35
2022/03/14 06:46:02;;;;;;;9.15;7.07;;;;;;;8.65;92.02;102244.78;5052673;28;20387;-36
2022/03/14 06:48:27;;;;;;;9.50;7.97;;;;;;;8.66;91.81;102246.44;5052667;28;20029;-36
2022/03/14 06:50:53;;;;;;;9.35;7.95;;;;;;;8.68;91.01;102242.53;5053154;28;20035;-35
2022/03/14 06:53:18;;;;;;;12.10;7.80;;;;;;;8.73;91.00;102248.19;5052738;28;20032;-36
2022/03/14 06:55:43;;;;;;;12.80;7.50;;;;;;;8.71;91.32;102247.56;5054962;28;20420;-36
2022/03/14 06:58:09;;;;;;;10.13;7.80;;;;;;;8.75;91.46;102254.25;5056480;28;20533;-35
2022/03/14 07:00:34;;;;;;;8.30;7.28;;;;;;;8.75;91.42;102253.44;5057114;28;20060;-36
2022/03/14 07:03:00;;;;;;;8.48;7.43;;;;;;;8.79;91.04;102248.50;5056240;28;20032;-36
2022/03/14 07:05:26;;;;;;;9.70;8.10;;;;;;;8.73;91.19;102244.66;5056734;28;20028;-36
2022/03/14 07:07:52;;;;;;;9.93;8.35;;;;;;;8.83;90.95;102266.81;5056388;28;20325;-36
2022/03/14 07:10:17;;;;;;;12.93;8.07;;;;;;;8.85;90.84;102266.66;5056245;28;20497;-35
2022/03/14 07:12:48;;;;;;;11.35;8.30;;;;;;;8.86;91.31;102263.75;5056101;28;20082;-35
2022/03/14 07:15:16;;;;;;;10.05;8.05;;;;;;;8.86;91.06;102266.44;5055272;28;20029;-35
2022/03/14 07:17:42;;;;;;;8.80;7.90;;;;;;;8.88;91.12;102268.97;5055955;28;20163;-35
2022/03/14 07:20:08;;;;;;;;;;;;;;;8.96;90.12;102277.81;5056327;28;20036;-35
2022/03/14 07:22:38;;;;;;;10.80;7.78;;;;;;;8.91;90.32;102280.22;5056210;28;19913;-35
2022/03/14 07:25:06;;;;;;;8.70;7.70;;;;;;;8.96;90.25;102285.06;5056178;28;20457;-35
2022/03/14 07:27:31;;;;;;;8.63;7.65;;;;;;;8.95;90.97;102281.53;5055910;28;20053;-36
2022/03/14 07:29:56;;;;;;;10.75;8.50;;;;;;;8.94;90.68;102285.25;5056775;28;20475;-35
2022/03/14 07:32:22;;;;;;;11.37;8.70;;;;;;;8.99;90.17;102280.16;5056328;28;20134;-36
2022/03/14 07:34:47;;;;;;;12.45;9.30;;;;;;;8.96;90.85;102285.91;5055851;28;20029;-36
2022/03/14 07:37:13;;;;;;;11.13;9.13;;;;;;;9.02;90.07;102287.84;5056477;28;20027;-36
2022/03/14 07:39:38;;;;;;;10.00;8.50;;;;;;;8.98;89.70;102291.97;5055208;28;20021;-36
2022/03/14 07:42:03;;;;;;;9.20;8.40;;;;;;;8.99;90.06;102288.25;5055904;28;20036;-36
2022/03/14 07:44:29;;;;;;;11.18;9.52;;;;;;;9.09;89.74;102296.06;5055943;28;20413;-36
2022/03/14 07:46:54;;;;;;;9.70;8.60;;;;;;;9.13;89.46;102297.38;5056248;28;20081;-35
2022/03/14 07:49:20;;;;;;;12.23;9.00;;;;;;;9.13;89.27;102301.94;5055864;28;20048;-35
2022/03/14 07:51:45;;;;;;;10.52;8.90;;;;;;;9.15;88.61;102297.16;5055343;28;20036;-36
2022/03/14 07:54:11;;;;;;;11.40;8.77;;;;;;;9.17;89.31;102306.75;5056098;28;20033;-36
2022/03/14 07:56:36;;;;;;;11.23;9.37;;;;;;;9.21;88.50;102307.22;5055005;28;20036;-36
2022/03/14 07:59:03;;;;;;;10.52;9.20;;;;;;;9.25;88.29;102309.34;5055628;28;20047;-36
2022/03/14 08:01:28;;;;;;;11.50;9.40;;;;;;;9.24;88.42;102320.34;5055430;28;20033;-36
2022/03/14 08:03:54;;;;;;;12.95;10.00;;;;;;;9.02;88.52;102285.16;5053635;28;20457;-35
2022/03/14 08:06:22;;;;;;;11.43;9.03;;;;;;;9.24;88.58;102318.50;5054697;28;20025;-35
2022/03/14 08:08:52;;;;;;;10.55;9.50;;;;;;;9.09;88.49;102290.66;5055537;28;20074;-36
2022/03/14 08:11:18;;;;;;;11.63;9.23;;;;;;;9.26;88.54;102324.53;5055897;28;20036;-36
2022/03/14 08:13:43;;;;;;;13.23;9.68;;;;;;;9.25;88.43;102320.16;5054934;28;20028;-36
2022/03/14 08:16:09;;;;;;;12.07;10.30;;;;;;;9.35;87.90;102330.66;5055581;28;20025;-35
2022/03/14 08:18:35;;;;;;;11.20;9.98;;;;;;;9.33;87.44;102343.53;5054841;28;20025;-36
2022/03/14 08:21:01;;;;;;;13.95;11.10;;;;;;;9.37;87.62;102342.13;5055072;28;20028;-36
2022/03/14 08:23:26;;;;;;;11.60;10.35;;;;;;;9.27;87.02;102330.75;5055127;28;20025;-36
2022/03/14 08:25:53;;;;;;;15.68;10.82;;;;;;;9.36;87.12;102347.72;5054945;28;20072;-35
2022/03/14 08:28:19;;;;;;;12.35;10.98;;;;;;;9.35;87.32;102352.28;5054722;28;20055;-35
2022/03/14 08:30:45;;;;;;;12.25;10.98;;;;;;;9.34;86.78;102356.00;5054730;28;20064;-35
2022/03/14 08:33:10;;;;;;;15.40;10.90;;;;;;;9.35;87.28;102352.28;5052632;28;20037;-36
2022/03/14 08:35:36;;;;;;;14.35;11.45;;;;;;;9.36;86.72;102363.91;5055049;28;20032;-36
2022/03/14 08:38:01;;;;;;;15.37;11.50;;;;;;;9.25;87.43;102360.66;5054208;28;20069;-36
2022/03/14 08:40:27;;;;;;;15.63;11.98;;;;;;;9.35;87.00;102381.13;5054613;28;20063;-35
2022/03/14 08:42:55;;;;;;;13.93;12.45;;;;;;;9.36;87.13;102383.63;5054614;28;20033;-36
2022/03/14 08:45:23;;;;;;;15.13;12.48;;;;;;;9.31;87.03;102377.97;5054528;28;20099;-36
2022/03/14 08:47:49;;;;;;;15.23;12.02;;;;;;;9.38;87.08;102387.00;5054488;28;20397;-36
2022/03/14 08:50:15;;;;;;;18.67;11.57;;;;;;;9.46;86.45;102392.28;5054873;28;20040;-36
2022/03/14 08:52:41;;;;;;;13.25;10.32;;;;;;;9.50;86.15;102382.81;5054414;28;20033;-35
2022/03/14 08:55:06;;;;;;;;;;;;;;;9.68;86.04;102398.63;5054797;28;20021;-35
2022/03/14 08:57:32;;;;;;;12.05;10.20;;;;;;;9.73;85.87;102400.78;5053884;28;19962;-36
2022/03/14 08:59:57;;;;;;;15.83;11.17;;;;;;;9.76;85.24;102411.19;5054540;28;20036;-35
2022/03/14 09:02:23;;;;;;;18.45;11.50;;;;;;;9.74;84.61;102410.56;5054392;28;20025;-35
2022/03/14 09:04:48;;;;;;;13.63;10.33;;;;;;;9.76;84.02;102422.00;5053938;28;20031;-35
2022/03/14 09:07:31;;;;;;;15.35;11.40;;;;;;;9.79;84.27;102408.13;5054237;28;20060;-35
2022/03/14 09:10:03;;;;;;;13.90;11.98;;;;;;;9.87;83.50;102426.94;5054167;28;20039;-35
2022/03/14 09:12:28;;;;;;;13.68;11.95;;;;;;;9.90;83.94;102434.66;5054047;28;20025;-35
2022/03/14 09:14:54;;;;;;;16.00;12.35;;;;;;;9.92;83.51;102435.34;5054095;28;20040;-35
2022/03/14 09:17:19;;;;;;;15.33;13.03;;;;;;;9.85;82.95;102423.59;5053711;28;20032;-35
2022/03/14 09:19:45;;;;;;;14.63;12.63;;;;;;;9.88;83.35;102431.31;5054195;28;20055;-35
2022/03/14 09:22:11;;;;;;;15.57;11.37;;;;;;;9.94;83.23;102432.44;5053619;28;20500;-35
2022/03/14 09:24:38;;;;;;;16.42;11.98;;;;;;;10.00;82.46;102437.06;5053875;28;20060;-35
2022/03/14 09:27:04;;;;;;;14.95;12.23;;;;;;;10.07;82.72;102444.25;5053547;28;20025;-35
2022/03/14 09:29:30;;;;;;;15.15;11.70;;;;;;;10.07;81.94;102438.84;5053578;28;20029;-35
2022/03/14 09:31:56;;;;;;;13.13;11.80;;;;;;;10.01;82.04;102446.88;5053485;28;20027;-35
2022/03/14 09:34:22;;;;;;;14.25;11.18;;;;;;;10.06;81.60;102460.69;5054031;28;20047;-35
2022/03/14 09:36:48;;;;;;;17.55;10.98;;;;;;;10.10;82.16;102461.94;5053103;28;20156;-35
2022/03/14 09:39:14;;;;;;;12.48;9.98;;;;;;;10.10;82.37;102461.13;5053275;28;20029;-35
2022/03/14 09:41:42;;;;;;;13.05;11.30;;;;;;;10.15;82.13;102472.19;5053347;28;20025;-35
2022/03/14 09:44:11;;;;;;;13.70;9.98;;;;;;;10.07;82.74;102465.88;5054078;28;20358;-35
2022/03/14 09:46:38;;;;;;;13.35;9.90;;;;;;;10.14;82.40;102484.88;5054516;28;20385;-35
2022/03/14 09:49:06;;;;;;;9.90;8.45;;;;;;;10.20;81.69;102491.38;5053514;28;20060;-35
2022/03/14 09:51:31;;;;;;;13.05;8.93;;;;;;;10.18;81.53;102491.59;5053102;28;20028;-35
2022/03/14 09:53:58;;;;;;;10.43;8.15;;;;;;;10.22;81.44;102492.06;5053255;28;20366;-35
2022/03/14 09:56:25;;;;;;;11.52;8.15;;;;;;;10.31;81.07;102494.50;5053517;28;20029;-36
2022/03/14 09:58:50;;;;;;;12.75;8.40;;;;;;;10.46;81.28;102502.59;5052943;28;20056;-36
2022/03/14 10:01:17;;;;;;;8.85;7.53;;;;;;;10.58;80.80;102505.63;5053827;28;20059;-36
2022/03/14 10:03:42;;;;;;;11.52;7.95;;;;;;;10.62;80.12;102503.38;5053095;28;20477;-35
2022/03/14 10:06:08;;;;;;;10.18;7.65;;;;;;;10.69;80.19;102507.03;5052815;28;20033;-35
2022/03/14 10:08:33;;;;;;;7.83;6.73;;;;;;;10.70;79.08;102509.53;5053199;28;20111;-35
2022/03/14 10:10:58;;;;;;;9.40;6.80;;;;;;;10.77;79.19;102509.59;5053073;28;20256;-35
2022/03/14 10:13:24;;;;;;;12.40;8.15;;;;;;;10.88;80.03;102513.66;5052989;28;20466;-35
2022/03/14 10:15:50;;;;;;;12.57;7.50;;;;;;;10.96;78.82;102500.84;5053832;28;20134;-35
2022/03/14 10:18:18;;;;;;;10.07;7.40;;;;;;;11.18;77.46;102509.81;5051461;28;20048;-35
2022/03/14 10:21:07;;;;;;;9.65;7.00;;;;;;;11.41;76.72;102497.91;5052462;28;20055;-35
2022/03/14 10:23:37;;;;;;;11.68;7.70;;;;;;;11.58;76.30;102502.84;5053126;28;20028;-35
2022/03/14 10:26:06;;;;;;;11.10;7.32;;;;;;;11.65;74.82;102510.16;5053081;28;20025;-35
2022/03/14 10:28:33;;;;;;;10.27;8.52;;;;;;;11.65;74.31;102529.13;5053243;28;20036;-35
2022/03/14 10:31:02;;;;;;;10.27;7.38;;;;;;;11.58;74.06;102521.81;5055638;28;20078;-35
2022/03/14 10:33:30;;;;;;;10.40;7.20;;;;;;;11.58;73.89;102529.94;5057367;28;20347;-35
2022/03/14 10:35:57;;;;;;;8.32;6.25;;;;;;;11.42;74.41;102513.97;5057110;28;20043;-35
2022/03/14 10:38:23;;;;;;;8.52;5.68;;;;;;;11.55;73.83;102532.19;5057187;28;20032;-34
2022/03/14 10:40:48;;;;;;;;;;;;;;;11.63;74.00;102544.75;5057323;28;20143;-34
2022/03/14 10:43:21;;;;;;;8.07;6.28;;;;;;;11.46;73.53;102546.91;5056575;28;20372;-35
2022/03/14 10:45:47;;;;;;;10.25;6.80;;;;;;;11.42;74.06;102541.06;5056980;28;20458;-35
2022/03/14 10:48:12;;;;;;;8.45;6.18;;;;;;;11.44;73.93;102549.81;5056461;28;20037;-35
2022/03/14 10:50:40;;;;;;;10.02;6.40;;;;;;;11.48;73.90;102529.44;5057358;28;20044;-35
2022/03/14 10:53:19;;;;;;;6.80;5.03;;;;;;;11.63;72.50;102550.19;5056441;28;20054;-36
2022/03/14 10:55:46;;;;;;;7.20;5.07;;;;;;;11.56;73.06;102539.28;5056439;28;20163;-35
2022/03/14 10:58:14;;;;;;;5.65;4.97;;;;;;;11.58;72.67;102551.59;5056122;28;20481;-35
2022/03/14 11:00:49;;;;;;;11.70;4.75;;;;;;;11.54;73.26;102542.19;5056529;28;20158;-35
2022/03/14 11:03:32;;;;;;;6.95;4.57;;;;;;;11.69;72.55;102555.66;5057066;28;20479;-35
2022/03/14 11:06:04;;;;;;;7.32;4.30;;;;;;;11.79;72.36;102539.03;5056081;28;20021;-35
2022/03/14 11:08:35;;;;;;;7.20;4.50;;;;;;;11.92;70.35;102560.84;5056386;28;20029;-36
2022/03/14 11:11:10;;;;;;;5.57;3.92;;;;;;;11.89;70.15;102569.38;5056401;28;20029;-35
2022/03/14 11:13:44;;;;;;;7.22;3.92;;;;;;;11.86;70.14;102572.50;5056185;28;20028;-35
2022/03/14 11:16:17;;;;;;;4.45;3.60;;;;;;;11.80;70.00;102560.50;5056372;28;20029;-35
2022/03/14 11:18:44;;;;;;;6.00;3.40;;;;;;;11.77;70.02;102555.50;5056238;28;20107;-35
2022/03/14 11:21:15;;;;;;;6.20;3.97;;;;;;;11.91;70.00;102577.28;5056121;28;20144;-35
2022/03/14 11:23:46;;;;;;;9.95;4.95;;;;;;;12.02;70.34;102566.75;5055974;28;20068;-35